Time;durP1;ratioP1;P1;durP2;ratioP2;P2;SDS_P1;SDS_P2;PMS_P1;PMS_P2;Temp;Humidity;BMP_temperature;BMP_pressure;BME280_temperature;BME280_humidity;BME280_pressure;Samples;Min_cycle;Max_cycle;Signal;HPM_P1;HPM_P2
2023/04/27 00:01:10;;;;;;;;;;;7.50;99.90;;;;;;5002654;28;19980;-81
2023/04/27 00:03:37;;;;;;;;;;;7.50;99.90;;;;;;5019325;28;20395;-80
2023/04/27 00:06:04;;;;;;;;;;;7.50;99.90;;;;;;5019372;28;19925;-80
2023/04/27 00:08:31;;;;;;;;;;;7.40;99.90;;;;;;5022917;28;20291;-81
2023/04/27 00:10:58;;;;;;;;;;;7.40;99.90;;;;;;5022856;28;19954;-81
2023/04/27 00:13:25;;;;;;;;;;;7.30;99.90;;;;;;5023528;28;20020;-81
2023/04/27 00:15:52;;;;;;;;;;;7.20;99.90;;;;;;5021862;28;20148;-81
2023/04/27 00:18:19;;;;;;;;;;;7.10;99.90;;;;;;5022783;28;20396;-81
2023/04/27 00:20:46;;;;;;;;;;;7.10;99.90;;;;;;5023709;28;19921;-81
2023/04/27 00:23:12;;;;;;;;;;;7.00;99.90;;;;;;5039049;28;19935;-81
2023/04/27 00:25:39;;;;;;;;;;;7.00;99.90;;;;;;5022150;28;19929;-81
2023/04/27 00:28:06;;;;;;;;;;;7.00;99.90;;;;;;5022265;28;20396;-81
2023/04/27 00:30:32;;;;;;;;;;;6.90;99.90;;;;;;5023209;28;19931;-81
2023/04/27 00:32:59;;;;;;;;;;;6.90;99.90;;;;;;5022583;28;19964;-81
2023/04/27 00:35:26;;;;;;;;;;;6.80;99.90;;;;;;5022983;28;20075;-81
2023/04/27 00:37:53;;;;;;;;;;;6.80;99.90;;;;;;5037828;28;19928;-81
2023/04/27 00:40:20;;;;;;;;;;;6.70;99.90;;;;;;5020925;28;19920;-81
2023/04/27 00:42:47;;;;;;;;;;;6.70;99.90;;;;;;5022201;28;19936;-81
2023/04/27 00:45:14;;;;;;;;;;;6.80;99.90;;;;;;5022141;28;19931;-81
2023/04/27 00:47:40;;;;;;;;;;;6.70;99.90;;;;;;5021816;28;20317;-81
2023/04/27 00:50:09;;;;;;;;;;;6.70;99.90;;;;;;5038725;28;19967;-81
2023/04/27 00:52:36;;;;;;;;;;;6.60;99.90;;;;;;5023817;28;19921;-81
2023/04/27 00:55:03;;;;;;;;;;;6.60;99.90;;;;;;5037289;28;20336;-81
2023/04/27 00:57:30;;;;;;;;;;;6.60;99.90;;;;;;5022312;28;19943;-81
2023/04/27 00:59:58;;;;;;;;;;;6.50;99.90;;;;;;5021614;28;20132;-81
2023/04/27 01:02:25;;;;;;;;;;;6.40;99.90;;;;;;5021350;28;20012;-80
2023/04/27 01:04:52;;;;;;;;;;;6.40;99.90;;;;;;5018232;28;19921;-80
2023/04/27 01:07:23;;;;;;;;;;;6.40;99.90;;;;;;5036171;28;20194;-81
2023/04/27 01:09:50;;;;;;;;;;;6.30;99.90;;;;;;5020745;28;19979;-81
2023/04/27 01:12:16;;;;;;;;;;;6.30;99.90;;;;;;5023170;28;20695;-82
2023/04/27 01:14:43;;;;;;;;;;;6.30;99.90;;;;;;5021218;28;19947;-81
2023/04/27 01:17:10;;;;;;;;;;;6.20;99.90;;;;;;5023064;28;20507;-81
2023/04/27 01:19:39;;;;;;;;;;;6.20;99.90;;;;;;5021774;28;19925;-81
2023/04/27 01:22:06;;;;;;;;;;;6.20;99.90;;;;;;5023027;28;19929;-81
2023/04/27 01:24:32;;;;;;;;;;;6.20;99.90;;;;;;5034207;28;20108;-81
2023/04/27 01:27:00;;;;;;;;;;;6.20;99.90;;;;;;5023037;28;19963;-81
2023/04/27 01:29:27;;;;;;;;;;;6.20;99.90;;;;;;5021967;28;19929;-82
2023/04/27 01:31:53;;;;;;;;;;;6.20;99.90;;;;;;5023208;28;20445;-81
2023/04/27 01:34:20;;;;;;;;;;;6.10;99.90;;;;;;5021057;28;19921;-82
2023/04/27 01:36:47;;;;;;;;;;;6.10;99.90;;;;;;5021394;28;19928;-81
2023/04/27 01:39:14;;;;;;;;;;;6.10;99.90;;;;;;5039889;28;19925;-81
2023/04/27 01:41:41;;;;;;;;;;;6.10;99.90;;;;;;5026215;28;19921;-82
2023/04/27 01:44:07;;;;;;;;;;;6.10;99.90;;;;;;5042082;28;20047;-81
2023/04/27 01:46:34;;;;;;;;;;;6.20;99.90;;;;;;5023502;28;19921;-81
2023/04/27 01:49:01;;;;;;;;;;;6.20;99.90;;;;;;5025390;28;19932;-80
2023/04/27 01:51:28;;;;;;;;;;;6.20;99.90;;;;;;5028058;28;20299;-82
2023/04/27 01:53:54;;;;;;;;;;;6.20;99.90;;;;;;5027777;28;19940;-81
2023/04/27 01:56:21;;;;;;;;;;;6.10;99.90;;;;;;5042896;28;19921;-81
2023/04/27 01:58:48;;;;;;;;;;;6.10;99.90;;;;;;5028309;28;20325;-81
2023/04/27 02:01:15;;;;;;;;;;;6.10;99.90;;;;;;5043292;28;19964;-81
2023/04/27 02:03:42;;;;;;;;;;;6.00;99.90;;;;;;5029397;28;19932;-82
2023/04/27 02:06:09;;;;;;;;;;;6.00;99.90;;;;;;5027474;28;20257;-81
2023/04/27 02:08:35;;;;;;;;;;;6.00;99.90;;;;;;5027777;28;19957;-81
2023/04/27 02:11:02;;;;;;;;;;;6.00;99.90;;;;;;5025945;28;19995;-82
2023/04/27 02:13:29;;;;;;;;;;;5.90;99.90;;;;;;5024282;28;19956;-82
2023/04/27 02:15:55;;;;;;;;;;;5.90;99.90;;;;;;5008252;28;19925;-81
2023/04/27 02:18:23;;;;;;;;;;;5.90;99.90;;;;;;5024063;28;19925;-81
2023/04/27 02:20:50;;;;;;;;;;;5.90;99.90;;;;;;5023865;28;20526;-81
2023/04/27 02:23:17;;;;;;;;;;;5.90;99.90;;;;;;5023769;28;19944;-82
2023/04/27 02:25:45;;;;;;;;;;;5.90;99.90;;;;;;5022511;28;19956;-81
2023/04/27 02:28:15;;;;;;;;;;;6.00;99.90;;;;;;5023877;28;20452;-81
2023/04/27 02:30:42;;;;;;;;;;;5.90;99.90;;;;;;5008573;28;20352;-82
2023/04/27 02:33:09;;;;;;;;;;;5.90;99.90;;;;;;5011531;28;20016;-81
2023/04/27 02:35:36;;;;;;;;;;;5.90;99.90;;;;;;5027296;28;20233;-82
2023/04/27 02:38:02;;;;;;;;;;;5.90;99.90;;;;;;5028289;28;19921;-82
2023/04/27 02:40:29;;;;;;;;;;;5.90;99.90;;;;;;5026592;28;20011;-81
2023/04/27 02:42:56;;;;;;;;;;;5.80;99.90;;;;;;5028938;28;19921;-82
2023/04/27 02:45:23;;;;;;;;;;;5.80;99.90;;;;;;5027922;28;20007;-81
2023/04/27 02:47:49;;;;;;;;;;;5.80;99.90;;;;;;5026702;28;20419;-81
2023/04/27 02:50:16;;;;;;;;;;;5.80;99.90;;;;;;5027129;28;19921;-81
2023/04/27 02:52:43;;;;;;;;;;;5.80;99.90;;;;;;5026856;28;20087;-82
2023/04/27 02:55:10;;;;;;;;;;;5.80;99.90;;;;;;5042004;28;19920;-82
2023/04/27 02:57:37;;;;;;;;;;;5.80;99.90;;;;;;5026151;28;19921;-82
2023/04/27 03:00:05;;;;;;;;;;;5.80;99.90;;;;;;5027634;28;20316;-82
2023/04/27 03:02:32;;;;;;;;;;;5.80;99.90;;;;;;5026110;28;19952;-82
2023/04/27 03:04:59;;;;;;;;;;;5.80;99.90;;;;;;5027945;28;19951;-81
2023/04/27 03:07:26;;;;;;;;;;;5.80;99.90;;;;;;5026018;28;20016;-81
2023/04/27 03:09:52;;;;;;;;;;;5.80;99.90;;;;;;5025734;28;19932;-81
2023/04/27 03:12:19;;;;;;;;;;;5.80;99.90;;;;;;5026134;28;19921;-81
2023/04/27 03:14:46;;;;;;;;;;;5.80;99.90;;;;;;5023016;28;19925;-81
2023/04/27 03:17:12;;;;;;;;;;;5.80;99.90;;;;;;5022623;28;19922;-81
2023/04/27 03:19:40;;;;;;;;;;;5.80;99.90;;;;;;5022768;28;20043;-82
2023/04/27 03:22:06;;;;;;;;;;;5.80;99.90;;;;;;5023256;28;19928;-82
2023/04/27 03:24:33;;;;;;;;;;;5.80;99.90;;;;;;5025483;28;20024;-81
2023/04/27 03:27:01;;;;;;;;;;;5.80;99.90;;;;;;5027063;28;20443;-81
2023/04/27 03:29:28;;;;;;;;;;;5.80;99.90;;;;;;5026376;28;20365;-82
2023/04/27 03:31:55;;;;;;;;;;;5.80;99.90;;;;;;5025400;28;19939;-81
2023/04/27 03:34:22;;;;;;;;;;;5.80;99.90;;;;;;5027562;28;19928;-81
2023/04/27 03:36:49;;;;;;;;;;;5.80;99.90;;;;;;5027324;28;19925;-81
2023/04/27 03:39:16;;;;;;;;;;;5.80;99.90;;;;;;5041915;28;20312;-81
2023/04/27 03:41:42;;;;;;;;;;;5.80;99.90;;;;;;5025453;28;20363;-82
2023/04/27 03:44:09;;;;;;;;;;;5.80;99.90;;;;;;5027362;28;19983;-81
2023/04/27 03:46:36;;;;;;;;;;;5.80;99.90;;;;;;5026694;28;20019;-81
2023/04/27 03:49:02;;;;;;;;;;;5.80;99.90;;;;;;5027317;28;20011;-81
2023/04/27 03:51:31;;;;;;;;;;;5.80;99.90;;;;;;5027234;28;19937;-81
2023/04/27 03:53:58;;;;;;;;;;;5.80;99.90;;;;;;5022785;28;19922;-80
2023/04/27 03:56:24;;;;;;;;;;;5.80;99.90;;;;;;5006255;28;19922;-82
2023/04/27 03:58:51;;;;;;;;;;;5.80;99.90;;;;;;5007760;28;20007;-82
2023/04/27 04:01:18;;;;;;;;;;;5.80;99.90;;;;;;5021763;28;19968;-81
2023/04/27 04:03:46;;;;;;;;;;;5.80;99.90;;;;;;5022381;28;20355;-81
2023/04/27 04:06:13;;;;;;;;;;;5.80;99.90;;;;;;5022363;28;19921;-81
2023/04/27 04:08:40;;;;;;;;;;;5.80;99.90;;;;;;5022076;28;20009;-81
2023/04/27 04:11:07;;;;;;;;;;;5.80;99.90;;;;;;5020535;28;19921;-81
2023/04/27 04:13:34;;;;;;;;;;;5.80;99.90;;;;;;5022473;28;19960;-81
2023/04/27 04:16:02;;;;;;;;;;;5.80;99.90;;;;;;5021462;28;19921;-81
2023/04/27 04:18:29;;;;;;;;;;;5.80;99.90;;;;;;5020494;28;20287;-82
2023/04/27 04:20:55;;;;;;;;;;;5.80;99.90;;;;;;5018528;28;19925;-81
2023/04/27 04:23:22;;;;;;;;;;;5.80;99.90;;;;;;5016511;28;19940;-81
2023/04/27 04:25:49;;;;;;;;;;;5.80;99.90;;;;;;5018871;28;20015;-80
2023/04/27 04:28:16;;;;;;;;;;;5.80;99.90;;;;;;5013389;28;20438;-82
2023/04/27 04:30:43;;;;;;;;;;;5.80;99.90;;;;;;5018964;28;20043;-81
2023/04/27 04:33:09;;;;;;;;;;;5.70;99.90;;;;;;5041378;28;20114;-81
2023/04/27 04:35:37;;;;;;;;;;;5.70;99.90;;;;;;5022746;28;19925;-81
2023/04/27 04:38:03;;;;;;;;;;;5.70;99.90;;;;;;5035571;28;20011;-82
2023/04/27 04:40:30;;;;;;;;;;;5.60;99.90;;;;;;5019938;28;20368;-81
2023/04/27 04:42:56;;;;;;;;;;;5.60;99.90;;;;;;5015302;28;19922;-82
2023/04/27 04:45:23;;;;;;;;;;;5.60;99.90;;;;;;5034484;28;19936;-81
2023/04/27 04:47:50;;;;;;;;;;;5.60;99.90;;;;;;4999038;28;20385;-82
2023/04/27 04:50:17;;;;;;;;;;;5.60;99.90;;;;;;4999669;28;20332;-84
2023/04/27 04:52:47;;;;;;;;;;;5.60;99.90;;;;;;5002746;28;19947;-81
2023/04/27 04:55:14;;;;;;;;;;;5.60;99.90;;;;;;5015868;28;20384;-81
2023/04/27 04:57:41;;;;;;;;;;;5.60;99.90;;;;;;5017614;28;20134;-82
2023/04/27 05:00:12;;;;;;;;;;;5.70;99.90;;;;;;5017837;28;19925;-82
2023/04/27 05:02:39;;;;;;;;;;;5.70;99.90;;;;;;5012645;28;19929;-82
2023/04/27 05:05:07;;;;;;;;;;;5.80;99.90;;;;;;5027414;28;19921;-82
2023/04/27 05:07:33;;;;;;;;;;;5.80;99.90;;;;;;5011683;28;20020;-82
2023/04/27 05:10:00;;;;;;;;;;;5.90;99.90;;;;;;5008566;28;19948;-82
2023/04/27 05:12:27;;;;;;;;;;;6.00;99.90;;;;;;5006484;28;19932;-82
2023/04/27 05:14:54;;;;;;;;;;;6.10;99.90;;;;;;5015264;28;19986;-83
2023/04/27 05:17:20;;;;;;;;;;;6.10;99.90;;;;;;5015660;28;20010;-82
2023/04/27 05:19:47;;;;;;;;;;;6.10;99.90;;;;;;5030057;28;19956;-82
2023/04/27 05:22:15;;;;;;;;;;;6.20;99.90;;;;;;5009941;28;19996;-79
2023/04/27 05:24:41;;;;;;;;;;;6.30;99.90;;;;;;5013511;28;20120;-83
2023/04/27 05:27:08;;;;;;;;;;;6.30;99.90;;;;;;5016684;28;19925;-82
2023/04/27 05:29:35;;;;;;;;;;;6.40;99.90;;;;;;4999355;28;19929;-82
2023/04/27 05:32:02;;;;;;;;;;;6.40;99.90;;;;;;5015625;28;20368;-82
2023/04/27 05:34:28;;;;;;;;;;;6.50;99.90;;;;;;5030349;28;19928;-82
2023/04/27 05:36:55;;;;;;;;;;;6.50;99.90;;;;;;5010563;28;20375;-81
2023/04/27 05:39:22;;;;;;;;;;;6.60;99.90;;;;;;5009101;28;20012;-80
2023/04/27 05:41:48;;;;;;;;;;;6.70;99.90;;;;;;5020071;28;19996;-78
2023/04/27 05:44:15;;;;;;;;;;;6.70;99.90;;;;;;5014204;28;19932;-79
2023/04/27 05:46:42;;;;;;;;;;;6.70;99.90;;;;;;5013917;28;20034;-79
2023/04/27 05:49:08;;;;;;;;;;;6.80;99.90;;;;;;5031681;28;20299;-79
2023/04/27 05:51:37;;;;;;;;;;;6.90;99.90;;;;;;5010761;28;20516;-79
2023/04/27 05:54:04;;;;;;;;;;;6.90;99.90;;;;;;5004729;28;19995;-78
2023/04/27 05:56:30;;;;;;;;;;;7.10;99.90;;;;;;5008004;28;20032;-79
2023/04/27 05:58:57;;;;;;;;;;;7.20;99.90;;;;;;5007293;28;19921;-79
2023/04/27 06:01:27;;;;;;;;;;;7.30;99.90;;;;;;5009115;28;19933;-80
2023/04/27 06:03:54;;;;;;;;;;;7.50;99.90;;;;;;5024365;28;19979;-79
2023/04/27 06:06:21;;;;;;;;;;;7.60;99.90;;;;;;5009127;28;20308;-80
2023/04/27 06:08:48;;;;;;;;;;;7.80;99.90;;;;;;5025381;28;20369;-80
2023/04/27 06:11:15;;;;;;;;;;;7.90;99.90;;;;;;5012112;28;20132;-79
2023/04/27 06:13:41;;;;;;;;;;;8.10;99.90;;;;;;5013433;28;19928;-83
2023/04/27 06:16:08;;;;;;;;;;;8.30;99.90;;;;;;5014782;28;20443;-79
2023/04/27 06:18:35;;;;;;;;;;;8.30;99.90;;;;;;5017899;28;19968;-79
2023/04/27 06:21:01;;;;;;;;;;;8.40;99.90;;;;;;5017275;28;20007;-79
2023/04/27 06:23:28;;;;;;;;;;;8.50;99.90;;;;;;5019458;28;19928;-79
2023/04/27 06:25:55;;;;;;;;;;;8.70;99.90;;;;;;5015858;28;19921;-79
2023/04/27 06:28:21;;;;;;;;;;;8.80;99.90;;;;;;5018628;28;19981;-79
2023/04/27 06:30:48;;;;;;;;;;;8.90;99.90;;;;;;5020764;28;20293;-80
2023/04/27 06:33:15;;;;;;;;;;;9.00;99.90;;;;;;5020501;28;19925;-79
2023/04/27 06:35:42;;;;;;;;;;;9.10;99.90;;;;;;5018236;28;19976;-79
2023/04/27 06:38:12;;;;;;;;;;;9.30;99.90;;;;;;5020728;28;19921;-80
2023/04/27 06:40:39;;;;;;;;;;;9.30;99.90;;;;;;5005262;28;19932;-80
2023/04/27 06:43:06;;;;;;;;;;;9.40;99.90;;;;;;5021346;28;20019;-79
2023/04/27 06:45:32;;;;;;;;;;;9.40;99.90;;;;;;5023377;28;19944;-80
2023/04/27 06:47:59;;;;;;;;;;;9.50;99.90;;;;;;5008556;28;19943;-80
2023/04/27 06:50:26;;;;;;;;;;;9.50;99.90;;;;;;5024387;28;20307;-80
2023/04/27 06:52:53;;;;;;;;;;;9.60;99.90;;;;;;5024131;28;20020;-79
2023/04/27 06:55:20;;;;;;;;;;;9.60;99.90;;;;;;5020375;28;19976;-79
2023/04/27 06:57:47;;;;;;;;;;;9.70;99.90;;;;;;5020466;28;19936;-79
2023/04/27 07:00:14;;;;;;;;;;;9.80;99.90;;;;;;5020607;28;19943;-79
2023/04/27 07:02:40;;;;;;;;;;;9.90;99.90;;;;;;5006093;28;19920;-79
2023/04/27 07:05:07;;;;;;;;;;;10.00;99.90;;;;;;5036743;28;19928;-79
2023/04/27 07:07:34;;;;;;;;;;;10.00;99.90;;;;;;5022259;28;19931;-79
2023/04/27 07:10:00;;;;;;;;;;;10.10;99.90;;;;;;5023051;28;19921;-79
2023/04/27 07:12:27;;;;;;;;;;;10.10;99.90;;;;;;5040208;28;20276;-79
2023/04/27 07:14:54;;;;;;;;;;;10.20;99.90;;;;;;5023181;28;20017;-79
2023/04/27 07:17:21;;;;;;;;;;;10.30;99.90;;;;;;5023287;28;19921;-79
2023/04/27 07:19:47;;;;;;;;;;;10.30;99.90;;;;;;5023976;28;20456;-78
2023/04/27 07:22:14;;;;;;;;;;;10.40;99.90;;;;;;5024937;28;20015;-79
2023/04/27 07:24:41;;;;;;;;;;;10.40;99.90;;;;;;5022132;28;20420;-79
2023/04/27 07:27:09;;;;;;;;;;;10.40;99.90;;;;;;5024671;28;19929;-79
2023/04/27 07:29:36;;;;;;;;;;;10.50;99.90;;;;;;5024710;28;20374;-79
2023/04/27 07:32:07;;;;;;;;;;;10.50;99.90;;;;;;5023404;28;19967;-79
2023/04/27 07:34:34;;;;;;;;;;;10.50;99.90;;;;;;5007473;28;20048;-79
2023/04/27 07:37:10;;;;;;;;;;;10.60;99.90;;;;;;5022443;28;20126;-79
2023/04/27 07:39:37;;;;;;;;;;;10.70;99.90;;;;;;5023622;28;19927;-79
2023/04/27 07:42:04;;;;;;;;;;;10.80;99.90;;;;;;5039860;28;19995;-79
2023/04/27 07:44:31;;;;;;;;;;;10.90;99.90;;;;;;5029814;28;19927;-79
2023/04/27 07:46:57;;;;;;;;;;;10.90;99.90;;;;;;5022106;28;19920;-79
2023/04/27 07:49:25;;;;;;;;;;;10.90;99.90;;;;;;5023421;28;19931;-79
2023/04/27 07:51:51;;;;;;;;;;;11.00;99.90;;;;;;5024605;28;20256;-79
2023/04/27 07:54:18;;;;;;;;;;;11.10;99.90;;;;;;5018823;28;19945;-79
2023/04/27 07:56:45;;;;;;;;;;;11.10;99.90;;;;;;5021202;28;20077;-79
2023/04/27 07:59:13;;;;;;;;;;;11.10;99.90;;;;;;5018985;28;20448;-78
2023/04/27 08:01:40;;;;;;;;;;;11.20;99.90;;;;;;5009454;28;19967;-79
2023/04/27 08:04:07;;;;;;;;;;;11.40;99.90;;;;;;5012691;28;19963;-79
2023/04/27 08:06:34;;;;;;;;;;;11.60;99.90;;;;;;5007502;28;19932;-79
2023/04/27 08:09:03;;;;;;;;;;;11.70;99.90;;;;;;5008839;28;19968;-79
2023/04/27 08:11:30;;;;;;;;;;;11.80;99.90;;;;;;5017625;28;19936;-79
2023/04/27 08:13:57;;;;;;;;;;;11.90;99.90;;;;;;5020574;28;20008;-79
2023/04/27 08:16:24;;;;;;;;;;;12.00;99.90;;;;;;5029817;28;19925;-79
2023/04/27 08:18:50;;;;;;;;;;;12.10;99.90;;;;;;5013524;28;20095;-79
2023/04/27 08:21:18;;;;;;;;;;;12.20;99.90;;;;;;5032830;28;20248;-79
2023/04/27 08:23:44;;;;;;;;;;;12.30;99.90;;;;;;5017045;28;19990;-79
2023/04/27 08:26:15;;;;;;;;;;;12.40;99.90;;;;;;5027847;28;19956;-79
2023/04/27 08:28:42;;;;;;;;;;;12.40;99.90;;;;;;5014844;28;20253;-79
2023/04/27 08:31:08;;;;;;;;;;;12.50;99.90;;;;;;5015094;28;19947;-79
2023/04/27 08:33:35;;;;;;;;;;;12.50;99.90;;;;;;5043141;28;20675;-79
2023/04/27 08:36:02;;;;;;;;;;;12.50;99.90;;;;;;5025035;28;19940;-79
2023/04/27 08:38:29;;;;;;;;;;;12.50;99.90;;;;;;5014701;28;19972;-79
2023/04/27 08:40:56;;;;;;;;;;;12.60;99.90;;;;;;5013915;28;20304;-79
2023/04/27 08:43:34;;;;;;;;;;;12.60;99.90;;;;;;5014710;28;20407;-79
2023/04/27 08:46:01;;;;;;;;;;;12.80;99.90;;;;;;5027181;28;19925;-79
2023/04/27 08:48:27;;;;;;;;;;;12.80;99.90;;;;;;5014068;28;19925;-78
2023/04/27 08:50:55;;;;;;;;;;;12.80;99.90;;;;;;5016272;28;19991;-79
2023/04/27 08:53:22;;;;;;;;;;;12.90;99.90;;;;;;5021069;28;19924;-79
2023/04/27 08:55:49;;;;;;;;;;;12.90;99.90;;;;;;5020893;28;19967;-78
2023/04/27 08:58:18;;;;;;;;;;;12.90;99.90;;;;;;5021101;28;19921;-78
2023/04/27 09:00:46;;;;;;;;;;;13.10;99.90;;;;;;5016352;28;19928;-77
2023/04/27 09:03:23;;;;;;;;;;;13.20;99.90;;;;;;5017372;28;19921;-77
2023/04/27 09:05:50;;;;;;;;;;;13.30;99.90;;;;;;5018801;28;19929;-79
2023/04/27 09:08:43;;;;;;;;;;;13.40;99.90;;;;;;5012825;28;19921;-78
2023/04/27 09:11:09;;;;;;;;;;;13.50;99.90;;;;;;5015624;28;19921;-79
2023/04/27 09:13:36;;;;;;;;;;;13.60;99.90;;;;;;5003128;28;20011;-78
2023/04/27 09:16:03;;;;;;;;;;;13.80;99.90;;;;;;5015874;28;19993;-78
2023/04/27 09:18:33;;;;;;;;;;;13.90;99.90;;;;;;5021464;28;19940;-77
2023/04/27 09:21:03;;;;;;;;;;;14.00;99.70;;;;;;5019429;28;20374;-78
2023/04/27 09:23:30;;;;;;;;;;;14.10;99.70;;;;;;5014769;28;20031;-79
2023/04/27 09:25:57;;;;;;;;;;;14.20;99.50;;;;;;5014674;28;20134;-77
2023/04/27 09:28:24;;;;;;;;;;;14.30;99.50;;;;;;5018615;28;20388;-78
2023/04/27 09:30:52;;;;;;;;;;;14.30;99.20;;;;;;5018191;28;19925;-78
2023/04/27 09:33:26;;;;;;;;;;;14.40;99.30;;;;;;5015193;28;19968;-78
2023/04/27 09:35:53;;;;;;;;;;;14.50;98.60;;;;;;5019500;28;20001;-78
2023/04/27 09:38:20;;;;;;;;;;;14.60;99.00;;;;;;5022131;28;19928;-78
2023/04/27 09:40:47;;;;;;;;;;;14.70;98.80;;;;;;5002258;28;20027;-78
2023/04/27 09:43:14;;;;;;;;;;;14.80;98.90;;;;;;4999104;28;19957;-78
2023/04/27 09:45:40;;;;;;;;;;;14.80;98.40;;;;;;5035673;28;19924;-78
2023/04/27 09:48:07;;;;;;;;;;;14.90;98.20;;;;;;5017180;28;19927;-79
2023/04/27 09:50:38;;;;;;;;;;;15.00;98.80;;;;;;5018239;28;19921;-78
2023/04/27 09:53:05;;;;;;;;;;;15.10;98.50;;;;;;5001698;28;19925;-77
2023/04/27 09:55:35;;;;;;;;;;;15.10;98.20;;;;;;5018094;28;19925;-78
2023/04/27 09:58:08;;;;;;;;;;;15.30;97.90;;;;;;5020342;28;19937;-78
2023/04/27 10:00:55;;;;;;;;;;;15.30;97.70;;;;;;5019183;28;20369;-78
2023/04/27 10:03:25;;;;;;;;;;;15.40;97.80;;;;;;5022503;28;20355;-78
2023/04/27 10:05:58;;;;;;;;;;;15.70;97.70;;;;;;5020477;28;19921;-78
2023/04/27 10:08:25;;;;;;;;;;;15.80;97.50;;;;;;5020863;28;20780;-79
2023/04/27 10:10:52;;;;;;;;;;;16.00;96.90;;;;;;5002242;28;20437;-78
2023/04/27 10:13:22;;;;;;;;;;;16.20;96.10;;;;;;5024082;28;19920;-78
2023/04/27 10:15:49;;;;;;;;;;;16.30;95.10;;;;;;5005228;28;19932;-79
2023/04/27 10:18:26;;;;;;;;;;;16.40;94.90;;;;;;5040410;28;19983;-79
2023/04/27 10:20:53;;;;;;;;;;;16.40;94.30;;;;;;5023600;28;19960;-79
2023/04/27 10:23:23;;;;;;;;;;;16.50;94.30;;;;;;5005931;28;20325;-79
2023/04/27 10:25:51;;;;;;;;;;;16.50;93.80;;;;;;5019254;28;19976;-79
2023/04/27 10:28:17;;;;;;;;;;;16.40;93.50;;;;;;5021240;28;19929;-78
2023/04/27 10:30:48;;;;;;;;;;;16.50;93.30;;;;;;5032425;28;19955;-78
2023/04/27 10:33:15;;;;;;;;;;;16.40;93.30;;;;;;5020573;28;19921;-79
2023/04/27 10:35:43;;;;;;;;;;;16.60;93.20;;;;;;5003043;28;19921;-78
2023/04/27 10:38:15;;;;;;;;;;;16.80;92.60;;;;;;5019996;28;20099;-79
2023/04/27 10:40:45;;;;;;;;;;;16.90;92.70;;;;;;5018150;28;19972;-78
2023/04/27 10:43:13;;;;;;;;;;;17.00;92.00;;;;;;5021021;28;20061;-79
2023/04/27 10:45:40;;;;;;;;;;;17.10;92.80;;;;;;5019662;28;19929;-79
2023/04/27 10:48:07;;;;;;;;;;;17.20;92.80;;;;;;5004958;28;20396;-79
2023/04/27 10:50:34;;;;;;;;;;;17.30;92.30;;;;;;5020610;28;19922;-79
2023/04/27 10:53:02;;;;;;;;;;;17.40;92.30;;;;;;5020937;28;19972;-78
2023/04/27 10:55:30;;;;;;;;;;;17.60;92.40;;;;;;5018801;28;19975;-79
2023/04/27 10:57:57;;;;;;;;;;;17.60;91.50;;;;;;5029321;28;20345;-78
2023/04/27 11:00:35;;;;;;;;;;;17.60;92.00;;;;;;5014147;28;19983;-78
2023/04/27 11:03:10;;;;;;;;;;;17.70;91.50;;;;;;5010372;28;20373;-77
2023/04/27 11:05:37;;;;;;;;;;;17.70;91.40;;;;;;5019395;28;19926;-78
2023/04/27 11:08:07;;;;;;;;;;;17.70;91.50;;;;;;5036671;28;20313;-77
2023/04/27 11:10:35;;;;;;;;;;;17.70;91.50;;;;;;5022057;28;19943;-78
2023/04/27 11:13:11;;;;;;;;;;;17.70;90.60;;;;;;5019901;28;20008;-77
2023/04/27 11:15:45;;;;;;;;;;;17.60;91.10;;;;;;5019109;28;19987;-78
2023/04/27 11:18:12;;;;;;;;;;;17.50;91.10;;;;;;5018708;28;20019;-78
2023/04/27 11:20:39;;;;;;;;;;;17.30;90.90;;;;;;5017979;28;19952;-78
2023/04/27 11:23:06;;;;;;;;;;;17.30;90.90;;;;;;5017428;28;19957;-78
2023/04/27 11:25:32;;;;;;;;;;;17.30;90.70;;;;;;5013937;28;19929;-78
2023/04/27 11:27:59;;;;;;;;;;;17.30;90.70;;;;;;5017468;28;20011;-79
2023/04/27 11:30:26;;;;;;;;;;;17.30;90.80;;;;;;5012140;28;19972;-78
2023/04/27 11:32:52;;;;;;;;;;;17.50;90.90;;;;;;5013941;28;19948;-78
2023/04/27 11:35:19;;;;;;;;;;;17.40;90.90;;;;;;5013771;28;19929;-78
2023/04/27 11:37:55;;;;;;;;;;;17.30;90.90;;;;;;5010165;28;20309;-78
2023/04/27 11:40:21;;;;;;;;;;;17.30;91.00;;;;;;5013725;28;19925;-78
2023/04/27 11:43:02;;;;;;;;;;;17.40;90.70;;;;;;5014923;28;19921;-79
2023/04/27 11:45:29;;;;;;;;;;;17.20;90.70;;;;;;5010421;28;20336;-78
2023/04/27 11:47:58;;;;;;;;;;;17.10;90.70;;;;;;5016466;28;19927;-78
2023/04/27 11:50:26;;;;;;;;;;;17.00;90.90;;;;;;4996306;28;19944;-77
2023/04/27 11:52:52;;;;;;;;;;;17.00;91.10;;;;;;5004922;28;19929;-78
2023/04/27 11:55:20;;;;;;;;;;;17.00;91.20;;;;;;5015804;28;19933;-77
2023/04/27 11:57:46;;;;;;;;;;;16.90;91.30;;;;;;5011953;28;19929;-78
2023/04/27 12:00:14;;;;;;;;;;;16.80;91.50;;;;;;5016296;28;19925;-78
2023/04/27 12:02:41;;;;;;;;;;;16.80;91.30;;;;;;5012576;28;20004;-78
2023/04/27 12:05:08;;;;;;;;;;;16.80;91.00;;;;;;5013771;28;20380;-78
2023/04/27 12:07:35;;;;;;;;;;;16.80;91.40;;;;;;5000555;28;19929;-80
2023/04/27 12:10:02;;;;;;;;;;;16.70;91.10;;;;;;5012453;28;20363;-78
2023/04/27 12:12:29;;;;;;;;;;;16.70;91.80;;;;;;5012416;28;20027;-78
2023/04/27 12:14:56;;;;;;;;;;;16.60;91.50;;;;;;5015481;28;19968;-78
2023/04/27 12:17:23;;;;;;;;;;;16.70;91.50;;;;;;5011967;28;19921;-78
2023/04/27 12:19:50;;;;;;;;;;;17.00;91.60;;;;;;4997239;28;19921;-78
2023/04/27 12:22:16;;;;;;;;;;;17.10;91.40;;;;;;5015033;28;20035;-77
2023/04/27 12:24:43;;;;;;;;;;;17.20;91.40;;;;;;5047214;28;19925;-80
2023/04/27 12:27:10;;;;;;;;;;;17.30;91.70;;;;;;5015640;28;20410;-80
2023/04/27 12:29:37;;;;;;;;;;;17.40;91.70;;;;;;5015898;28;19925;-80
2023/04/27 12:32:04;;;;;;;;;;;17.50;91.50;;;;;;5015703;28;19925;-77
2023/04/27 12:34:31;;;;;;;;;;;17.50;91.20;;;;;;5016611;28;19937;-77
2023/04/27 12:36:58;;;;;;;;;;;17.50;91.40;;;;;;5016593;28;19925;-78
2023/04/27 12:39:25;;;;;;;;;;;17.60;91.30;;;;;;5031481;28;20517;-78
2023/04/27 12:41:52;;;;;;;;;;;17.80;91.60;;;;;;5032084;28;20028;-77
2023/04/27 12:44:19;;;;;;;;;;;18.00;91.40;;;;;;5016123;28;20067;-78
2023/04/27 12:46:49;;;;;;;;;;;18.20;91.10;;;;;;5014394;28;19986;-77
2023/04/27 12:49:16;;;;;;;;;;;18.30;90.80;;;;;;5014999;28;19924;-78
2023/04/27 12:51:43;;;;;;;;;;;18.30;90.80;;;;;;5014098;28;19924;-78
2023/04/27 12:54:10;;;;;;;;;;;18.30;90.70;;;;;;5016254;28;19928;-79
2023/04/27 12:56:38;;;;;;;;;;;18.10;90.20;;;;;;5001754;28;19987;-78
2023/04/27 12:59:05;;;;;;;;;;;17.80;90.60;;;;;;5005244;28;19932;-77
2023/04/27 13:01:32;;;;;;;;;;;17.50;90.20;;;;;;5016008;28;19947;-78
2023/04/27 13:04:00;;;;;;;;;;;17.60;90.90;;;;;;5009851;28;19929;-78
2023/04/27 13:06:27;;;;;;;;;;;17.70;90.90;;;;;;5014976;28;19925;-78
2023/04/27 13:08:54;;;;;;;;;;;17.70;91.30;;;;;;5015101;28;19940;-78
2023/04/27 13:11:22;;;;;;;;;;;17.60;90.80;;;;;;5009209;28;20035;-78
2023/04/27 13:13:48;;;;;;;;;;;17.60;91.20;;;;;;5026023;28;20256;-78
2023/04/27 13:16:15;;;;;;;;;;;17.50;91.30;;;;;;5001455;28;19921;-77
2023/04/27 13:18:48;;;;;;;;;;;17.50;91.30;;;;;;5013077;28;19931;-79
2023/04/27 13:21:16;;;;;;;;;;;17.50;91.90;;;;;;5014771;28;20066;-79
2023/04/27 13:23:42;;;;;;;;;;;17.40;91.80;;;;;;5016545;28;19932;-78
2023/04/27 13:26:10;;;;;;;;;;;17.40;92.20;;;;;;5014782;28;20367;-79
2023/04/27 13:28:37;;;;;;;;;;;17.40;91.90;;;;;;5015346;28;19944;-79
2023/04/27 13:31:04;;;;;;;;;;;17.30;91.70;;;;;;5016546;28;19984;-78
2023/04/27 13:33:31;;;;;;;;;;;17.10;91.90;;;;;;5014695;28;20451;-79
2023/04/27 13:36:01;;;;;;;;;;;16.80;92.40;;;;;;5015986;28;19925;-79
2023/04/27 13:38:27;;;;;;;;;;;16.70;92.40;;;;;;5013727;28;19929;-78
2023/04/27 13:40:54;;;;;;;;;;;16.60;92.80;;;;;;4998493;28;20261;-78
2023/04/27 13:43:21;;;;;;;;;;;16.40;92.90;;;;;;5004668;28;19921;-78
2023/04/27 13:45:49;;;;;;;;;;;16.20;93.00;;;;;;5020813;28;20081;-79
2023/04/27 13:48:16;;;;;;;;;;;16.00;93.20;;;;;;5038550;28;20727;-78
2023/04/27 13:50:42;;;;;;;;;;;15.90;93.30;;;;;;5023449;28;20074;-78
2023/04/27 13:53:10;;;;;;;;;;;15.80;93.50;;;;;;5023320;28;20023;-76
2023/04/27 13:55:37;;;;;;;;;;;15.70;93.90;;;;;;5020556;28;19937;-77
2023/04/27 13:58:04;;;;;;;;;;;15.60;93.80;;;;;;5022569;28;19971;-77
2023/04/27 14:00:33;;;;;;;;;;;15.50;94.20;;;;;;5017609;28;19965;-79
2023/04/27 14:03:00;;;;;;;;;;;15.40;94.00;;;;;;5004924;28;20411;-78
2023/04/27 14:05:27;;;;;;;;;;;15.40;94.40;;;;;;5022765;28;20423;-78
2023/04/27 14:07:54;;;;;;;;;;;15.20;94.20;;;;;;5023021;28;20277;-78
2023/04/27 14:10:21;;;;;;;;;;;15.10;94.40;;;;;;5020123;28;19921;-78
2023/04/27 14:12:48;;;;;;;;;;;15.10;94.80;;;;;;5021381;28;19931;-78
2023/04/27 14:15:14;;;;;;;;;;;15.10;95.00;;;;;;5021220;28;19932;-79
2023/04/27 14:17:41;;;;;;;;;;;15.10;95.00;;;;;;5020722;28;19971;-79
2023/04/27 14:20:08;;;;;;;;;;;15.00;95.20;;;;;;5021491;28;19968;-78
2023/04/27 14:22:35;;;;;;;;;;;14.80;95.10;;;;;;5021398;28;20398;-78
2023/04/27 14:25:02;;;;;;;;;;;14.70;95.60;;;;;;5020318;28;19968;-78